sensor_id;sensor_type;location;lat;lon;timestamp;P1;durP1;ratioP1;P2;durP2;ratioP2
7493;SDS011;3788;49.902;8.590;2022-08-01T00:02:15;1.60;;;1.50;;
7493;SDS011;3788;49.902;8.590;2022-08-01T00:04:43;3.97;;;1.70;;
7493;SDS011;3788;49.902;8.590;2022-08-01T00:07:09;1.80;;;1.70;;
7493;SDS011;3788;49.902;8.590;2022-08-01T00:09:36;1.83;;;1.60;;
7493;SDS011;3788;49.902;8.590;2022-08-01T00:12:03;1.80;;;1.70;;
7493;SDS011;3788;49.902;8.590;2022-08-01T00:14:30;1.70;;;1.60;;
7493;SDS011;3788;49.902;8.590;2022-08-01T00:16:57;1.60;;;1.50;;
7493;SDS011;3788;49.902;8.590;2022-08-01T00:19:24;1.87;;;1.70;;
7493;SDS011;3788;49.902;8.590;2022-08-01T00:21:52;1.77;;;1.67;;
7493;SDS011;3788;49.902;8.590;2022-08-01T00:24:19;1.67;;;1.57;;
7493;SDS011;3788;49.902;8.590;2022-08-01T00:26:45;1.90;;;1.80;;
7493;SDS011;3788;49.902;8.590;2022-08-01T00:29:12;1.50;;;1.40;;
7493;SDS011;3788;49.902;8.590;2022-08-01T00:31:39;1.93;;;1.63;;
7493;SDS011;3788;49.902;8.590;2022-08-01T00:34:06;1.67;;;1.57;;
7493;SDS011;3788;49.902;8.590;2022-08-01T00:36:32;1.83;;;1.73;;
7493;SDS011;3788;49.902;8.590;2022-08-01T00:39:00;1.70;;;1.60;;
7493;SDS011;3788;49.902;8.590;2022-08-01T00:41:27;1.40;;;1.30;;
7493;SDS011;3788;49.902;8.590;2022-08-01T00:43:54;1.40;;;1.30;;
7493;SDS011;3788;49.902;8.590;2022-08-01T00:46:20;1.40;;;1.40;;
7493;SDS011;3788;49.902;8.590;2022-08-01T00:48:47;1.70;;;1.60;;
7493;SDS011;3788;49.902;8.590;2022-08-01T00:51:14;1.50;;;1.40;;
7493;SDS011;3788;49.902;8.590;2022-08-01T00:53:41;1.60;;;1.50;;
7493;SDS011;3788;49.902;8.590;2022-08-01T00:56:09;2.73;;;1.37;;
7493;SDS011;3788;49.902;8.590;2022-08-01T00:58:36;1.30;;;1.30;;
7493;SDS011;3788;49.902;8.590;2022-08-01T01:01:03;1.20;;;1.10;;
7493;SDS011;3788;49.902;8.590;2022-08-01T01:03:30;1.10;;;1.10;;
7493;SDS011;3788;49.902;8.590;2022-08-01T01:06:01;1.67;;;1.47;;
7493;SDS011;3788;49.902;8.590;2022-08-01T01:08:39;1.73;;;1.10;;
7493;SDS011;3788;49.902;8.590;2022-08-01T01:11:13;1.90;;;1.27;;
7493;SDS011;3788;49.902;8.590;2022-08-01T01:13:44;1.30;;;1.20;;
7493;SDS011;3788;49.902;8.590;2022-08-01T01:16:14;1.37;;;1.37;;
7493;SDS011;3788;49.902;8.590;2022-08-01T01:18:45;1.20;;;1.10;;
7493;SDS011;3788;49.902;8.590;2022-08-01T01:21:23;1.50;;;1.40;;
7493;SDS011;3788;49.902;8.590;2022-08-01T01:24:10;1.80;;;1.70;;
7493;SDS011;3788;49.902;8.590;2022-08-01T01:26:43;1.93;;;1.47;;
7493;SDS011;3788;49.902;8.590;2022-08-01T01:29:20;1.73;;;1.50;;
7493;SDS011;3788;49.902;8.590;2022-08-01T01:31:51;2.67;;;1.40;;
7493;SDS011;3788;49.902;8.590;2022-08-01T01:34:21;1.37;;;1.27;;
7493;SDS011;3788;49.902;8.590;2022-08-01T01:36:50;1.40;;;1.30;;
7493;SDS011;3788;49.902;8.590;2022-08-01T01:39:19;1.40;;;1.30;;
7493;SDS011;3788;49.902;8.590;2022-08-01T01:41:48;1.70;;;1.60;;
7493;SDS011;3788;49.902;8.590;2022-08-01T01:44:16;1.33;;;1.23;;
7493;SDS011;3788;49.902;8.590;2022-08-01T01:46:45;1.20;;;1.20;;
7493;SDS011;3788;49.902;8.590;2022-08-01T01:49:13;1.67;;;1.57;;
7493;SDS011;3788;49.902;8.590;2022-08-01T01:51:42;1.90;;;1.80;;
7493;SDS011;3788;49.902;8.590;2022-08-01T01:54:10;1.27;;;1.23;;
7493;SDS011;3788;49.902;8.590;2022-08-01T01:56:37;1.50;;;1.40;;
7493;SDS011;3788;49.902;8.590;2022-08-01T01:59:15;1.40;;;1.30;;
7493;SDS011;3788;49.902;8.590;2022-08-01T02:01:46;1.40;;;1.30;;
7493;SDS011;3788;49.902;8.590;2022-08-01T02:04:15;1.30;;;1.20;;
7493;SDS011;3788;49.902;8.590;2022-08-01T02:06:43;1.40;;;1.30;;
7493;SDS011;3788;49.902;8.590;2022-08-01T02:09:12;1.30;;;1.20;;
7493;SDS011;3788;49.902;8.590;2022-08-01T02:11:42;1.30;;;1.20;;
7493;SDS011;3788;49.902;8.590;2022-08-01T02:14:10;0.90;;;0.90;;
7493;SDS011;3788;49.902;8.590;2022-08-01T02:16:39;1.30;;;1.20;;
7493;SDS011;3788;49.902;8.590;2022-08-01T02:19:09;1.50;;;1.40;;
7493;SDS011;3788;49.902;8.590;2022-08-01T02:21:37;1.03;;;1.03;;
7493;SDS011;3788;49.902;8.590;2022-08-01T02:24:10;1.07;;;1.07;;
7493;SDS011;3788;49.902;8.590;2022-08-01T02:26:41;1.30;;;1.20;;
7493;SDS011;3788;49.902;8.590;2022-08-01T02:29:13;1.20;;;1.10;;
7493;SDS011;3788;49.902;8.590;2022-08-01T02:31:45;1.20;;;1.10;;
7493;SDS011;3788;49.902;8.590;2022-08-01T02:34:17;1.30;;;1.20;;
7493;SDS011;3788;49.902;8.590;2022-08-01T02:36:46;1.50;;;1.40;;
7493;SDS011;3788;49.902;8.590;2022-08-01T02:39:14;1.33;;;1.20;;
7493;SDS011;3788;49.902;8.590;2022-08-01T02:41:45;1.40;;;1.30;;
7493;SDS011;3788;49.902;8.590;2022-08-01T02:44:15;1.50;;;1.40;;
7493;SDS011;3788;49.902;8.590;2022-08-01T02:46:49;1.40;;;1.30;;
7493;SDS011;3788;49.902;8.590;2022-08-01T02:49:19;1.30;;;1.20;;
7493;SDS011;3788;49.902;8.590;2022-08-01T02:51:48;1.47;;;1.37;;
7493;SDS011;3788;49.902;8.590;2022-08-01T02:54:17;1.43;;;1.33;;
7493;SDS011;3788;49.902;8.590;2022-08-01T02:56:47;1.40;;;1.30;;
7493;SDS011;3788;49.902;8.590;2022-08-01T02:59:17;1.53;;;1.20;;
7493;SDS011;3788;49.902;8.590;2022-08-01T03:01:49;1.30;;;1.20;;
7493;SDS011;3788;49.902;8.590;2022-08-01T03:04:18;1.30;;;1.20;;
7493;SDS011;3788;49.902;8.590;2022-08-01T03:06:46;1.20;;;1.10;;
7493;SDS011;3788;49.902;8.590;2022-08-01T03:09:14;1.43;;;1.33;;
7493;SDS011;3788;49.902;8.590;2022-08-01T03:11:42;1.23;;;1.13;;
7493;SDS011;3788;49.902;8.590;2022-08-01T03:14:11;1.30;;;1.20;;
7493;SDS011;3788;49.902;8.590;2022-08-01T03:16:39;1.20;;;1.10;;
7493;SDS011;3788;49.902;8.590;2022-08-01T03:19:09;1.30;;;1.10;;
7493;SDS011;3788;49.902;8.590;2022-08-01T03:21:39;1.20;;;1.10;;
7493;SDS011;3788;49.902;8.590;2022-08-01T03:24:07;1.20;;;1.10;;
7493;SDS011;3788;49.902;8.590;2022-08-01T03:26:36;1.80;;;1.10;;
7493;SDS011;3788;49.902;8.590;2022-08-01T03:29:05;1.23;;;1.13;;
7493;SDS011;3788;49.902;8.590;2022-08-01T03:31:34;1.20;;;1.10;;
7493;SDS011;3788;49.902;8.590;2022-08-01T03:34:03;1.13;;;1.10;;
7493;SDS011;3788;49.902;8.590;2022-08-01T03:36:30;1.50;;;1.40;;
7493;SDS011;3788;49.902;8.590;2022-08-01T03:39:01;1.20;;;1.10;;
7493;SDS011;3788;49.902;8.590;2022-08-01T03:41:32;1.53;;;1.23;;
7493;SDS011;3788;49.902;8.590;2022-08-01T03:44:03;1.03;;;1.03;;
7493;SDS011;3788;49.902;8.590;2022-08-01T03:46:35;1.40;;;1.30;;
7493;SDS011;3788;49.902;8.590;2022-08-01T03:49:14;1.10;;;1.10;;
7493;SDS011;3788;49.902;8.590;2022-08-01T03:51:44;1.30;;;1.20;;
7493;SDS011;3788;49.902;8.590;2022-08-01T03:54:15;1.07;;;1.00;;
7493;SDS011;3788;49.902;8.590;2022-08-01T03:56:46;0.90;;;0.90;;
7493;SDS011;3788;49.902;8.590;2022-08-01T03:59:15;0.90;;;0.90;;
7493;SDS011;3788;49.902;8.590;2022-08-01T04:01:44;0.90;;;0.90;;
7493;SDS011;3788;49.902;8.590;2022-08-01T04:04:11;1.17;;;1.17;;
7493;SDS011;3788;49.902;8.590;2022-08-01T04:06:38;1.00;;;0.90;;
7493;SDS011;3788;49.902;8.590;2022-08-01T04:09:06;0.90;;;0.90;;
7493;SDS011;3788;49.902;8.590;2022-08-01T04:11:34;0.90;;;0.90;;
7493;SDS011;3788;49.902;8.590;2022-08-01T04:14:02;0.80;;;0.80;;
7493;SDS011;3788;49.902;8.590;2022-08-01T04:16:29;1.23;;;1.13;;
7493;SDS011;3788;49.902;8.590;2022-08-01T04:18:56;1.40;;;1.30;;
7493;SDS011;3788;49.902;8.590;2022-08-01T04:21:23;1.13;;;1.03;;
7493;SDS011;3788;49.902;8.590;2022-08-01T04:23:52;1.13;;;1.10;;
7493;SDS011;3788;49.902;8.590;2022-08-01T04:26:21;1.43;;;1.20;;
7493;SDS011;3788;49.902;8.590;2022-08-01T04:28:51;1.43;;;1.00;;
7493;SDS011;3788;49.902;8.590;2022-08-01T04:31:19;1.13;;;1.13;;
7493;SDS011;3788;49.902;8.590;2022-08-01T04:33:51;1.37;;;1.27;;
7493;SDS011;3788;49.902;8.590;2022-08-01T04:36:21;2.30;;;1.30;;
7493;SDS011;3788;49.902;8.590;2022-08-01T04:38:52;1.20;;;1.10;;
7493;SDS011;3788;49.902;8.590;2022-08-01T04:41:21;1.43;;;1.10;;
7493;SDS011;3788;49.902;8.590;2022-08-01T04:43:50;5.97;;;1.40;;
7493;SDS011;3788;49.902;8.590;2022-08-01T04:46:19;2.27;;;1.20;;
7493;SDS011;3788;49.902;8.590;2022-08-01T04:48:45;2.10;;;1.20;;
7493;SDS011;3788;49.902;8.590;2022-08-01T04:51:13;1.00;;;1.00;;
7493;SDS011;3788;49.902;8.590;2022-08-01T04:53:41;1.20;;;1.10;;
7493;SDS011;3788;49.902;8.590;2022-08-01T04:56:08;1.27;;;1.27;;
7493;SDS011;3788;49.902;8.590;2022-08-01T04:58:37;1.10;;;1.00;;
7493;SDS011;3788;49.902;8.590;2022-08-01T05:01:06;1.00;;;1.00;;
7493;SDS011;3788;49.902;8.590;2022-08-01T05:03:33;1.10;;;1.00;;
7493;SDS011;3788;49.902;8.590;2022-08-01T05:06:00;1.20;;;1.10;;
7493;SDS011;3788;49.902;8.590;2022-08-01T05:08:26;1.10;;;1.10;;
7493;SDS011;3788;49.902;8.590;2022-08-01T05:10:53;0.97;;;0.97;;
7493;SDS011;3788;49.902;8.590;2022-08-01T05:13:20;1.03;;;1.03;;
7493;SDS011;3788;49.902;8.590;2022-08-01T05:15:47;1.83;;;1.00;;
7493;SDS011;3788;49.902;8.590;2022-08-01T05:18:15;1.20;;;1.00;;
7493;SDS011;3788;49.902;8.590;2022-08-01T05:20:41;0.90;;;0.90;;
7493;SDS011;3788;49.902;8.590;2022-08-01T05:23:08;1.10;;;1.10;;
7493;SDS011;3788;49.902;8.590;2022-08-01T05:25:35;1.40;;;1.30;;
7493;SDS011;3788;49.902;8.590;2022-08-01T05:28:01;1.07;;;1.07;;
7493;SDS011;3788;49.902;8.590;2022-08-01T05:30:28;1.37;;;1.30;;
7493;SDS011;3788;49.902;8.590;2022-08-01T05:32:55;1.37;;;1.27;;
7493;SDS011;3788;49.902;8.590;2022-08-01T05:35:23;1.30;;;1.20;;
7493;SDS011;3788;49.902;8.590;2022-08-01T05:37:49;1.47;;;1.27;;
7493;SDS011;3788;49.902;8.590;2022-08-01T05:40:16;1.30;;;1.20;;
7493;SDS011;3788;49.902;8.590;2022-08-01T05:42:43;1.20;;;1.20;;
7493;SDS011;3788;49.902;8.590;2022-08-01T05:45:10;1.43;;;1.33;;
7493;SDS011;3788;49.902;8.590;2022-08-01T05:47:36;1.17;;;1.07;;
7493;SDS011;3788;49.902;8.590;2022-08-01T05:50:03;1.40;;;1.30;;
7493;SDS011;3788;49.902;8.590;2022-08-01T05:52:32;1.33;;;1.23;;
7493;SDS011;3788;49.902;8.590;2022-08-01T05:54:58;1.20;;;1.10;;
7493;SDS011;3788;49.902;8.590;2022-08-01T05:57:25;1.30;;;1.20;;
7493;SDS011;3788;49.902;8.590;2022-08-01T05:59:52;1.20;;;1.10;;
7493;SDS011;3788;49.902;8.590;2022-08-01T06:02:19;1.20;;;1.10;;
7493;SDS011;3788;49.902;8.590;2022-08-01T06:04:45;1.50;;;1.40;;
7493;SDS011;3788;49.902;8.590;2022-08-01T06:07:12;3.17;;;1.30;;
7493;SDS011;3788;49.902;8.590;2022-08-01T06:09:40;2.97;;;1.37;;
7493;SDS011;3788;49.902;8.590;2022-08-01T06:12:07;1.93;;;1.10;;
7493;SDS011;3788;49.902;8.590;2022-08-01T06:14:33;2.50;;;1.47;;
7493;SDS011;3788;49.902;8.590;2022-08-01T06:17:00;1.30;;;1.20;;
7493;SDS011;3788;49.902;8.590;2022-08-01T06:19:27;2.13;;;1.33;;
7493;SDS011;3788;49.902;8.590;2022-08-01T06:21:53;1.63;;;1.27;;
7493;SDS011;3788;49.902;8.590;2022-08-01T06:24:21;1.53;;;1.43;;
7493;SDS011;3788;49.902;8.590;2022-08-01T06:26:50;1.37;;;1.27;;
7493;SDS011;3788;49.902;8.590;2022-08-01T06:29:16;2.43;;;1.30;;
7493;SDS011;3788;49.902;8.590;2022-08-01T06:31:43;1.10;;;1.00;;
7493;SDS011;3788;49.902;8.590;2022-08-01T06:34:10;1.60;;;1.20;;
7493;SDS011;3788;49.902;8.590;2022-08-01T06:36:36;1.57;;;1.30;;
7493;SDS011;3788;49.902;8.590;2022-08-01T06:39:03;3.43;;;1.50;;
7493;SDS011;3788;49.902;8.590;2022-08-01T06:41:30;1.43;;;1.30;;
7493;SDS011;3788;49.902;8.590;2022-08-01T06:43:58;1.50;;;1.33;;
7493;SDS011;3788;49.902;8.590;2022-08-01T06:46:27;1.20;;;1.10;;
7493;SDS011;3788;49.902;8.590;2022-08-01T06:48:54;1.30;;;1.20;;
7493;SDS011;3788;49.902;8.590;2022-08-01T06:51:21;1.07;;;1.07;;
7493;SDS011;3788;49.902;8.590;2022-08-01T06:53:47;1.20;;;1.10;;
7493;SDS011;3788;49.902;8.590;2022-08-01T06:56:14;1.13;;;1.13;;
7493;SDS011;3788;49.902;8.590;2022-08-01T06:58:41;2.80;;;1.23;;
7493;SDS011;3788;49.902;8.590;2022-08-01T07:01:09;1.40;;;1.30;;
7493;SDS011;3788;49.902;8.590;2022-08-01T07:03:36;1.37;;;1.20;;
7493;SDS011;3788;49.902;8.590;2022-08-01T07:06:03;1.10;;;1.10;;
7493;SDS011;3788;49.902;8.590;2022-08-01T07:08:30;1.30;;;1.20;;
7493;SDS011;3788;49.902;8.590;2022-08-01T07:10:57;1.27;;;1.13;;
7493;SDS011;3788;49.902;8.590;2022-08-01T07:13:25;1.30;;;1.20;;
7493;SDS011;3788;49.902;8.590;2022-08-01T07:15:52;2.13;;;1.00;;
7493;SDS011;3788;49.902;8.590;2022-08-01T07:18:20;7.70;;;1.70;;
7493;SDS011;3788;49.902;8.590;2022-08-01T07:20:47;1.10;;;1.10;;
7493;SDS011;3788;49.902;8.590;2022-08-01T07:23:14;2.63;;;1.40;;
7493;SDS011;3788;49.902;8.590;2022-08-01T07:25:42;1.53;;;1.20;;
7493;SDS011;3788;49.902;8.590;2022-08-01T07:28:08;1.87;;;1.17;;
7493;SDS011;3788;49.902;8.590;2022-08-01T07:30:35;1.33;;;1.23;;
7493;SDS011;3788;49.902;8.590;2022-08-01T07:33:02;1.63;;;1.53;;
7493;SDS011;3788;49.902;8.590;2022-08-01T07:35:30;1.47;;;1.37;;
7493;SDS011;3788;49.902;8.590;2022-08-01T07:37:57;1.63;;;1.53;;
7493;SDS011;3788;49.902;8.590;2022-08-01T07:40:24;1.60;;;1.40;;
7493;SDS011;3788;49.902;8.590;2022-08-01T07:42:52;1.13;;;1.13;;
7493;SDS011;3788;49.902;8.590;2022-08-01T07:45:19;1.40;;;1.30;;
7493;SDS011;3788;49.902;8.590;2022-08-01T07:47:46;1.50;;;1.40;;
7493;SDS011;3788;49.902;8.590;2022-08-01T07:50:14;1.50;;;1.40;;
7493;SDS011;3788;49.902;8.590;2022-08-01T07:52:43;2.90;;;1.40;;
7493;SDS011;3788;49.902;8.590;2022-08-01T07:55:10;1.53;;;1.43;;
7493;SDS011;3788;49.902;8.590;2022-08-01T07:57:37;1.63;;;1.53;;
7493;SDS011;3788;49.902;8.590;2022-08-01T08:00:05;1.50;;;1.40;;
7493;SDS011;3788;49.902;8.590;2022-08-01T08:02:33;1.97;;;1.63;;
7493;SDS011;3788;49.902;8.590;2022-08-01T08:05:00;3.93;;;1.67;;
7493;SDS011;3788;49.902;8.590;2022-08-01T08:07:27;1.40;;;1.30;;
7493;SDS011;3788;49.902;8.590;2022-08-01T08:09:55;1.40;;;1.30;;
7493;SDS011;3788;49.902;8.590;2022-08-01T08:12:21;1.27;;;1.27;;
7493;SDS011;3788;49.902;8.590;2022-08-01T08:14:48;1.40;;;1.30;;
7493;SDS011;3788;49.902;8.590;2022-08-01T08:17:15;1.67;;;1.00;;
7493;SDS011;3788;49.902;8.590;2022-08-01T08:19:42;1.30;;;1.20;;
7493;SDS011;3788;49.902;8.590;2022-08-01T08:22:09;0.90;;;0.90;;
7493;SDS011;3788;49.902;8.590;2022-08-01T08:24:36;0.93;;;0.93;;
7493;SDS011;3788;49.902;8.590;2022-08-01T08:27:05;1.33;;;1.20;;
7493;SDS011;3788;49.902;8.590;2022-08-01T08:29:32;1.33;;;1.23;;
7493;SDS011;3788;49.902;8.590;2022-08-01T08:31:59;1.23;;;1.13;;
7493;SDS011;3788;49.902;8.590;2022-08-01T08:34:27;1.63;;;1.10;;
7493;SDS011;3788;49.902;8.590;2022-08-01T08:36:54;1.70;;;1.30;;
7493;SDS011;3788;49.902;8.590;2022-08-01T08:39:22;1.27;;;1.17;;
7493;SDS011;3788;49.902;8.590;2022-08-01T08:41:50;2.43;;;1.10;;
7493;SDS011;3788;49.902;8.590;2022-08-01T08:44:18;1.50;;;1.40;;
7493;SDS011;3788;49.902;8.590;2022-08-01T08:46:46;1.33;;;1.23;;
7493;SDS011;3788;49.902;8.590;2022-08-01T08:49:16;1.20;;;1.20;;
7493;SDS011;3788;49.902;8.590;2022-08-01T08:51:46;1.60;;;1.50;;
7493;SDS011;3788;49.902;8.590;2022-08-01T08:54:15;1.53;;;1.43;;
7493;SDS011;3788;49.902;8.590;2022-08-01T08:56:44;1.60;;;1.50;;
7493;SDS011;3788;49.902;8.590;2022-08-01T08:59:13;1.37;;;1.37;;
7493;SDS011;3788;49.902;8.590;2022-08-01T09:01:42;1.73;;;1.63;;
7493;SDS011;3788;49.902;8.590;2022-08-01T09:04:09;1.70;;;1.50;;
7493;SDS011;3788;49.902;8.590;2022-08-01T09:06:36;1.90;;;1.40;;
7493;SDS011;3788;49.902;8.590;2022-08-01T09:09:04;3.57;;;2.00;;
7493;SDS011;3788;49.902;8.590;2022-08-01T09:11:31;1.53;;;1.43;;
7493;SDS011;3788;49.902;8.590;2022-08-01T09:14:03;3.13;;;1.90;;
7493;SDS011;3788;49.902;8.590;2022-08-01T09:16:32;3.27;;;1.50;;
7493;SDS011;3788;49.902;8.590;2022-08-01T09:19:08;1.73;;;1.63;;
7493;SDS011;3788;49.902;8.590;2022-08-01T09:21:37;1.90;;;1.70;;
7493;SDS011;3788;49.902;8.590;2022-08-01T09:24:12;1.70;;;1.60;;
7493;SDS011;3788;49.902;8.590;2022-08-01T09:26:40;1.70;;;1.60;;
7493;SDS011;3788;49.902;8.590;2022-08-01T09:29:08;1.50;;;1.47;;
7493;SDS011;3788;49.902;8.590;2022-08-01T09:31:44;1.50;;;1.40;;
7493;SDS011;3788;49.902;8.590;2022-08-01T09:34:13;2.03;;;1.93;;
7493;SDS011;3788;49.902;8.590;2022-08-01T09:36:44;1.87;;;1.77;;
7493;SDS011;3788;49.902;8.590;2022-08-01T09:39:16;1.63;;;1.53;;
7493;SDS011;3788;49.902;8.590;2022-08-01T09:41:43;1.60;;;1.50;;
7493;SDS011;3788;49.902;8.590;2022-08-01T09:44:10;1.77;;;1.67;;
7493;SDS011;3788;49.902;8.590;2022-08-01T09:46:43;2.27;;;2.03;;
7493;SDS011;3788;49.902;8.590;2022-08-01T09:49:16;1.80;;;1.70;;
7493;SDS011;3788;49.902;8.590;2022-08-01T09:51:54;2.00;;;1.90;;
7493;SDS011;3788;49.902;8.590;2022-08-01T09:54:28;1.77;;;1.67;;
7493;SDS011;3788;49.902;8.590;2022-08-01T09:57:06;1.80;;;1.70;;
7493;SDS011;3788;49.902;8.590;2022-08-01T09:59:39;1.80;;;1.70;;
7493;SDS011;3788;49.902;8.590;2022-08-01T10:02:13;2.37;;;1.50;;
7493;SDS011;3788;49.902;8.590;2022-08-01T10:04:53;2.03;;;1.50;;
7493;SDS011;3788;49.902;8.590;2022-08-01T10:07:20;1.80;;;1.70;;
7493;SDS011;3788;49.902;8.590;2022-08-01T10:09:47;2.20;;;1.50;;
7493;SDS011;3788;49.902;8.590;2022-08-01T10:12:14;1.70;;;1.60;;
7493;SDS011;3788;49.902;8.590;2022-08-01T10:14:43;1.73;;;1.63;;
7493;SDS011;3788;49.902;8.590;2022-08-01T10:17:12;2.60;;;1.40;;
7493;SDS011;3788;49.902;8.590;2022-08-01T10:19:40;1.57;;;1.47;;
7493;SDS011;3788;49.902;8.590;2022-08-01T10:22:10;1.60;;;1.50;;
7493;SDS011;3788;49.902;8.590;2022-08-01T10:24:41;1.83;;;1.70;;
7493;SDS011;3788;49.902;8.590;2022-08-01T10:27:09;1.77;;;1.67;;
7493;SDS011;3788;49.902;8.590;2022-08-01T10:29:40;1.60;;;1.50;;
7493;SDS011;3788;49.902;8.590;2022-08-01T10:32:08;1.80;;;1.70;;
7493;SDS011;3788;49.902;8.590;2022-08-01T10:34:36;1.60;;;1.50;;
7493;SDS011;3788;49.902;8.590;2022-08-01T10:37:03;2.30;;;1.70;;
7493;SDS011;3788;49.902;8.590;2022-08-01T10:39:32;2.23;;;1.83;;
7493;SDS011;3788;49.902;8.590;2022-08-01T10:42:00;1.80;;;1.70;;
7493;SDS011;3788;49.902;8.590;2022-08-01T10:44:27;2.13;;;1.50;;
7493;SDS011;3788;49.902;8.590;2022-08-01T10:46:57;1.60;;;1.50;;
7493;SDS011;3788;49.902;8.590;2022-08-01T10:49:30;1.90;;;1.80;;
7493;SDS011;3788;49.902;8.590;2022-08-01T10:52:01;1.80;;;1.60;;
7493;SDS011;3788;49.902;8.590;2022-08-01T10:54:29;1.90;;;1.50;;
7493;SDS011;3788;49.902;8.590;2022-08-01T10:57:06;1.80;;;1.70;;
7493;SDS011;3788;49.902;8.590;2022-08-01T10:59:33;2.10;;;1.47;;
7493;SDS011;3788;49.902;8.590;2022-08-01T11:02:05;1.70;;;1.60;;
7493;SDS011;3788;49.902;8.590;2022-08-01T11:07:17;1.23;;;1.23;;
7493;SDS011;3788;49.902;8.590;2022-08-01T11:09:51;1.40;;;1.30;;
7493;SDS011;3788;49.902;8.590;2022-08-01T11:12:37;1.70;;;1.60;;
7493;SDS011;3788;49.902;8.590;2022-08-01T11:15:17;1.80;;;1.70;;
7493;SDS011;3788;49.902;8.590;2022-08-01T11:17:50;1.70;;;1.60;;
7493;SDS011;3788;49.902;8.590;2022-08-01T11:20:18;1.53;;;1.43;;
7493;SDS011;3788;49.902;8.590;2022-08-01T11:28:41;1.57;;;1.47;;
7493;SDS011;3788;49.902;8.590;2022-08-01T11:31:25;1.50;;;1.40;;
7493;SDS011;3788;49.902;8.590;2022-08-01T11:33:56;1.40;;;1.37;;
7493;SDS011;3788;49.902;8.590;2022-08-01T11:36:23;1.60;;;1.50;;
7493;SDS011;3788;49.902;8.590;2022-08-01T11:41:38;1.70;;;1.40;;
7493;SDS011;3788;49.902;8.590;2022-08-01T11:44:06;1.60;;;1.50;;
7493;SDS011;3788;49.902;8.590;2022-08-01T11:46:53;1.80;;;1.70;;
7493;SDS011;3788;49.902;8.590;2022-08-01T11:49:22;1.97;;;1.87;;
7493;SDS011;3788;49.902;8.590;2022-08-01T11:51:56;1.63;;;1.53;;
7493;SDS011;3788;49.902;8.590;2022-08-01T11:54:24;1.70;;;1.60;;
7493;SDS011;3788;49.902;8.590;2022-08-01T11:56:58;1.73;;;1.63;;
7493;SDS011;3788;49.902;8.590;2022-08-01T11:59:26;2.00;;;1.83;;
7493;SDS011;3788;49.902;8.590;2022-08-01T12:01:53;1.73;;;1.63;;
7493;SDS011;3788;49.902;8.590;2022-08-01T12:04:20;1.80;;;1.70;;
7493;SDS011;3788;49.902;8.590;2022-08-01T12:06:47;1.77;;;1.67;;
7493;SDS011;3788;49.902;8.590;2022-08-01T12:09:15;1.83;;;1.73;;
7493;SDS011;3788;49.902;8.590;2022-08-01T12:11:43;1.50;;;1.40;;
7493;SDS011;3788;49.902;8.590;2022-08-01T12:14:16;1.50;;;1.40;;
7493;SDS011;3788;49.902;8.590;2022-08-01T12:16:53;1.60;;;1.50;;
7493;SDS011;3788;49.902;8.590;2022-08-01T12:19:20;1.87;;;1.77;;
7493;SDS011;3788;49.902;8.590;2022-08-01T12:24:40;1.60;;;1.50;;
7493;SDS011;3788;49.902;8.590;2022-08-01T12:27:08;1.70;;;1.60;;
7493;SDS011;3788;49.902;8.590;2022-08-01T12:29:37;2.00;;;1.70;;
7493;SDS011;3788;49.902;8.590;2022-08-01T12:32:20;1.67;;;1.57;;
7493;SDS011;3788;49.902;8.590;2022-08-01T12:34:49;1.53;;;1.43;;
7493;SDS011;3788;49.902;8.590;2022-08-01T12:37:17;1.60;;;1.50;;
7493;SDS011;3788;49.902;8.590;2022-08-01T12:39:44;1.63;;;1.53;;
7493;SDS011;3788;49.902;8.590;2022-08-01T12:42:11;1.50;;;1.40;;
7493;SDS011;3788;49.902;8.590;2022-08-01T12:44:41;1.50;;;1.40;;
7493;SDS011;3788;49.902;8.590;2022-08-01T12:47:10;1.33;;;1.33;;
7493;SDS011;3788;49.902;8.590;2022-08-01T12:49:38;1.63;;;1.53;;
7493;SDS011;3788;49.902;8.590;2022-08-01T12:52:07;1.60;;;1.50;;
7493;SDS011;3788;49.902;8.590;2022-08-01T12:57:36;1.80;;;1.70;;
7493;SDS011;3788;49.902;8.590;2022-08-01T13:00:12;1.77;;;1.67;;
7493;SDS011;3788;49.902;8.590;2022-08-01T13:02:42;1.50;;;1.40;;
7493;SDS011;3788;49.902;8.590;2022-08-01T13:05:12;1.60;;;1.50;;
7493;SDS011;3788;49.902;8.590;2022-08-01T13:07:42;1.67;;;1.53;;
7493;SDS011;3788;49.902;8.590;2022-08-01T13:10:11;2.23;;;1.37;;
7493;SDS011;3788;49.902;8.590;2022-08-01T13:12:40;1.17;;;1.13;;
7493;SDS011;3788;49.902;8.590;2022-08-01T13:15:18;1.70;;;1.60;;
7493;SDS011;3788;49.902;8.590;2022-08-01T13:17:51;1.93;;;1.20;;
7493;SDS011;3788;49.902;8.590;2022-08-01T13:20:25;1.60;;;1.50;;
7493;SDS011;3788;49.902;8.590;2022-08-01T13:23:13;1.33;;;1.23;;
7493;SDS011;3788;49.902;8.590;2022-08-01T13:25:51;2.00;;;1.80;;
7493;SDS011;3788;49.902;8.590;2022-08-01T13:28:22;1.60;;;1.50;;
7493;SDS011;3788;49.902;8.590;2022-08-01T13:30:52;1.50;;;1.40;;
7493;SDS011;3788;49.902;8.590;2022-08-01T13:33:24;1.60;;;1.50;;
7493;SDS011;3788;49.902;8.590;2022-08-01T13:35:52;1.80;;;1.40;;
7493;SDS011;3788;49.902;8.590;2022-08-01T13:38:20;1.40;;;1.30;;
7493;SDS011;3788;49.902;8.590;2022-08-01T13:41:07;1.67;;;1.57;;
7493;SDS011;3788;49.902;8.590;2022-08-01T13:43:34;1.60;;;1.50;;
7493;SDS011;3788;49.902;8.590;2022-08-01T13:46:02;1.37;;;1.27;;
7493;SDS011;3788;49.902;8.590;2022-08-01T13:48:30;1.40;;;1.30;;
7493;SDS011;3788;49.902;8.590;2022-08-01T13:50:57;1.60;;;1.50;;
7493;SDS011;3788;49.902;8.590;2022-08-01T13:53:24;1.40;;;1.30;;
7493;SDS011;3788;49.902;8.590;2022-08-01T13:55:51;1.40;;;1.30;;
7493;SDS011;3788;49.902;8.590;2022-08-01T13:58:18;1.60;;;1.50;;
7493;SDS011;3788;49.902;8.590;2022-08-01T14:00:44;1.50;;;1.40;;
7493;SDS011;3788;49.902;8.590;2022-08-01T14:03:12;2.37;;;1.27;;
7493;SDS011;3788;49.902;8.590;2022-08-01T14:05:41;1.70;;;1.60;;
7493;SDS011;3788;49.902;8.590;2022-08-01T14:08:10;2.60;;;1.70;;
7493;SDS011;3788;49.902;8.590;2022-08-01T14:10:37;1.43;;;1.33;;
7493;SDS011;3788;49.902;8.590;2022-08-01T14:13:04;1.57;;;1.47;;
7493;SDS011;3788;49.902;8.590;2022-08-01T14:15:31;1.33;;;1.30;;
7493;SDS011;3788;49.902;8.590;2022-08-01T14:17:58;1.47;;;1.37;;
7493;SDS011;3788;49.902;8.590;2022-08-01T14:20:26;1.53;;;1.43;;
7493;SDS011;3788;49.902;8.590;2022-08-01T14:22:52;1.57;;;1.47;;
7493;SDS011;3788;49.902;8.590;2022-08-01T14:25:19;1.93;;;1.70;;
7493;SDS011;3788;49.902;8.590;2022-08-01T14:27:46;1.27;;;1.27;;
7493;SDS011;3788;49.902;8.590;2022-08-01T14:30:13;1.57;;;1.47;;
7493;SDS011;3788;49.902;8.590;2022-08-01T14:32:40;1.53;;;1.43;;
7493;SDS011;3788;49.902;8.590;2022-08-01T14:35:07;1.47;;;1.37;;
7493;SDS011;3788;49.902;8.590;2022-08-01T14:37:35;1.60;;;1.50;;
7493;SDS011;3788;49.902;8.590;2022-08-01T14:40:02;1.10;;;1.10;;
7493;SDS011;3788;49.902;8.590;2022-08-01T14:42:32;1.33;;;1.23;;
7493;SDS011;3788;49.902;8.590;2022-08-01T14:44:59;1.70;;;1.60;;
7493;SDS011;3788;49.902;8.590;2022-08-01T14:47:26;1.40;;;1.30;;
7493;SDS011;3788;49.902;8.590;2022-08-01T14:49:53;1.63;;;1.30;;
7493;SDS011;3788;49.902;8.590;2022-08-01T14:52:20;1.40;;;1.30;;
7493;SDS011;3788;49.902;8.590;2022-08-01T14:54:48;1.40;;;1.30;;
7493;SDS011;3788;49.902;8.590;2022-08-01T14:57:14;1.43;;;1.33;;
7493;SDS011;3788;49.902;8.590;2022-08-01T14:59:43;1.30;;;1.23;;
7493;SDS011;3788;49.902;8.590;2022-08-01T15:02:09;1.47;;;1.37;;
7493;SDS011;3788;49.902;8.590;2022-08-01T15:04:37;1.33;;;1.30;;
7493;SDS011;3788;49.902;8.590;2022-08-01T15:07:04;1.30;;;1.20;;
7493;SDS011;3788;49.902;8.590;2022-08-01T15:09:31;1.50;;;1.40;;
7493;SDS011;3788;49.902;8.590;2022-08-01T15:11:59;1.63;;;1.53;;
7493;SDS011;3788;49.902;8.590;2022-08-01T15:14:26;1.20;;;1.20;;
7493;SDS011;3788;49.902;8.590;2022-08-01T15:17:10;1.60;;;1.50;;
7493;SDS011;3788;49.902;8.590;2022-08-01T15:19:37;1.57;;;1.40;;
7493;SDS011;3788;49.902;8.590;2022-08-01T15:22:04;1.73;;;1.63;;
7493;SDS011;3788;49.902;8.590;2022-08-01T15:24:31;4.87;;;1.80;;
7493;SDS011;3788;49.902;8.590;2022-08-01T15:26:57;6.00;;;2.50;;
7493;SDS011;3788;49.902;8.590;2022-08-01T15:29:26;6.87;;;2.93;;
7493;SDS011;3788;49.902;8.590;2022-08-01T15:31:52;5.67;;;2.67;;
7493;SDS011;3788;49.902;8.590;2022-08-01T15:34:20;4.03;;;2.40;;
7493;SDS011;3788;49.902;8.590;2022-08-01T15:36:47;3.23;;;2.40;;
7493;SDS011;3788;49.902;8.590;2022-08-01T15:39:14;2.67;;;2.37;;
7493;SDS011;3788;49.902;8.590;2022-08-01T15:41:41;2.63;;;1.83;;
7493;SDS011;3788;49.902;8.590;2022-08-01T15:44:09;2.40;;;1.73;;